createdAt,value
2019-02-26T00:00:50.154Z,5.40
2019-02-26T00:02:56.322Z,5.30
2019-02-26T00:04:58.633Z,5.40
2019-02-26T00:07:03.374Z,5.30
2019-02-26T00:09:09.332Z,5.30
2019-02-26T00:11:13.967Z,5.30
2019-02-26T00:13:18.337Z,5.20
2019-02-26T00:15:22.677Z,5.20
2019-02-26T00:17:27.014Z,5.20
2019-02-26T00:19:31.405Z,5.00
2019-02-26T00:21:35.746Z,5.00
2019-02-26T00:23:41.639Z,5.00
2019-02-26T00:25:44.538Z,5.00
2019-02-26T00:27:49.639Z,5.00
2019-02-26T00:29:55.132Z,5.00
2019-02-26T00:31:57.867Z,5.00
2019-02-26T00:34:02.239Z,5.00
2019-02-26T00:36:07.319Z,4.90
2019-02-26T00:38:11.673Z,5.00
2019-02-26T00:40:19.045Z,5.00
2019-02-26T00:42:23.639Z,5.00
2019-02-26T00:44:25.244Z,5.00
2019-02-26T00:46:30.276Z,5.00
2019-02-26T00:48:35.901Z,5.00
2019-02-26T00:50:39.802Z,5.00
2019-02-26T00:52:42.704Z,5.00
2019-02-26T00:54:47.107Z,5.00
2019-02-26T00:56:51.425Z,4.90
2019-02-26T00:58:55.771Z,4.90
2019-02-26T01:01:00.157Z,4.90
2019-02-26T01:03:06.086Z,4.80
2019-02-26T01:05:10.792Z,4.80
2019-02-26T01:07:13.439Z,4.70
2019-02-26T01:09:17.861Z,4.60
2019-02-26T01:11:23.833Z,4.60
2019-02-26T01:13:28.458Z,4.60
2019-02-26T01:15:31.057Z,4.60
2019-02-26T01:17:35.745Z,4.60
2019-02-26T01:19:40.727Z,4.60
2019-02-26T01:21:44.289Z,4.50
2019-02-26T01:23:48.670Z,4.40
2019-02-26T01:25:54.668Z,4.40
2019-02-26T01:27:58.579Z,4.40
2019-02-26T01:30:03.432Z,4.40
2019-02-26T01:32:08.885Z,4.40
2019-02-26T01:34:12.002Z,4.40
2019-02-26T01:36:16.228Z,4.40
2019-02-26T01:38:21.335Z,4.40
2019-02-26T01:40:25.745Z,4.40
2019-02-26T01:42:29.852Z,4.40
2019-02-26T01:44:35.096Z,4.40
2019-02-26T01:46:38.821Z,4.40
2019-02-26T01:48:41.489Z,4.40
2019-02-26T01:50:45.877Z,4.30
2019-02-26T01:52:51.870Z,4.30
2019-02-26T01:54:55.836Z,4.20
2019-02-26T01:56:59.001Z,4.10
2019-02-26T01:59:03.373Z,4.00
2019-02-26T02:01:09.988Z,3.90
2019-02-26T02:03:12.191Z,3.90
2019-02-26T02:05:16.635Z,3.90
2019-02-26T02:07:21.927Z,3.90
2019-02-26T02:09:25.572Z,3.90
2019-02-26T02:11:31.208Z,3.90
2019-02-26T02:13:35.774Z,3.90
2019-02-26T02:15:40.082Z,3.80
2019-02-26T02:17:43.241Z,3.80
2019-02-26T02:19:47.605Z,3.80
2019-02-26T02:21:53.793Z,3.80
2019-02-26T02:23:56.386Z,3.80
2019-02-26T02:26:04.083Z,3.80
2019-02-26T02:28:05.170Z,3.80
2019-02-26T02:30:18.564Z,3.80
2019-02-26T02:32:16.656Z,3.80
2019-02-26T02:34:23.253Z,3.80
2019-02-26T02:36:26.397Z,3.80
2019-02-26T02:38:29.923Z,3.80
2019-02-26T02:40:34.340Z,3.80
2019-02-26T02:42:40.774Z,3.80
2019-02-26T02:44:44.832Z,3.80
2019-02-26T02:46:47.486Z,3.80
2019-02-26T02:48:51.928Z,3.80
2019-02-26T02:50:56.315Z,3.80
2019-02-26T02:53:02.225Z,3.80
2019-02-26T02:55:06.982Z,3.70
2019-02-26T02:57:10.061Z,3.80
2019-02-26T02:59:14.648Z,3.80
2019-02-26T03:01:21.266Z,3.80
2019-02-26T03:03:23.009Z,3.80
2019-02-26T03:05:31.301Z,3.80
2019-02-26T03:07:31.756Z,3.70
2019-02-26T03:09:37.734Z,3.70
2019-02-26T03:11:41.992Z,3.70
2019-02-26T03:13:45.868Z,3.60
2019-02-26T03:15:50.146Z,3.50
2019-02-26T03:17:53.633Z,3.40
2019-02-26T03:19:58.603Z,3.30
2019-02-26T03:22:02.365Z,3.30
2019-02-26T03:24:08.649Z,3.30
2019-02-26T03:26:14.778Z,3.20
2019-02-26T03:28:15.519Z,3.20
2019-02-26T03:30:27.498Z,3.10
2019-02-26T03:32:24.348Z,3.10
2019-02-26T03:34:28.731Z,3.10
2019-02-26T03:36:34.161Z,3.10
2019-02-26T03:38:37.466Z,3.10
2019-02-26T03:40:41.841Z,3.10
2019-02-26T03:42:46.397Z,3.10
2019-02-26T03:44:50.668Z,3.10
2019-02-26T03:46:54.993Z,3.10
2019-02-26T03:49:02.514Z,3.20
2019-02-26T03:51:03.781Z,3.20
2019-02-26T03:53:09.905Z,3.20
2019-02-26T03:55:15.414Z,3.20
2019-02-26T03:57:19.311Z,3.30
2019-02-26T03:59:21.636Z,3.20
2019-02-26T04:01:26.089Z,3.20
2019-02-26T04:03:32.138Z,3.20
2019-02-26T04:05:34.923Z,3.20
2019-02-26T04:07:39.375Z,3.20
2019-02-26T04:09:44.413Z,3.10
2019-02-26T04:11:50.340Z,3.10
2019-02-26T04:13:56.126Z,3.10
2019-02-26T04:15:59.092Z,3.10
2019-02-26T04:18:01.543Z,3.10
2019-02-26T04:20:06.722Z,3.10
2019-02-26T04:22:23.353Z,3.00
2019-02-26T04:24:29.047Z,3.00
2019-02-26T04:26:51.725Z,2.90
2019-02-26T04:29:05.208Z,2.90
2019-02-26T04:33:27.834Z,2.90
2019-02-26T04:35:44.796Z,2.90
2019-02-26T04:38:29.098Z,2.90
2019-02-26T04:40:41.010Z,2.90
2019-02-26T04:42:55.602Z,2.90
2019-02-26T04:45:42.053Z,2.90
2019-02-26T04:47:48.818Z,2.90
2019-02-26T04:49:50.807Z,2.90
2019-02-26T04:51:55.151Z,2.90
2019-02-26T04:54:02.034Z,2.90
2019-02-26T04:56:06.318Z,2.90
2019-02-26T04:58:08.754Z,2.80
2019-02-26T05:00:12.721Z,2.80
2019-02-26T05:02:17.195Z,2.80
2019-02-26T05:04:21.630Z,2.80
2019-02-26T05:06:26.039Z,2.80
2019-02-26T05:08:32.080Z,2.70
2019-02-26T05:10:34.835Z,2.70
2019-02-26T05:12:40.179Z,2.60
2019-02-26T05:14:43.623Z,2.70
2019-02-26T05:16:47.999Z,2.60
2019-02-26T05:18:55.017Z,2.60
2019-02-26T05:20:56.790Z,2.60
2019-02-26T05:23:02.980Z,2.60
2019-02-26T05:25:07.431Z,2.70
2019-02-26T05:27:15.642Z,2.70
2019-02-26T05:29:19.270Z,2.80
2019-02-26T05:31:23.689Z,2.80
2019-02-26T05:33:30.419Z,2.80
2019-02-26T05:35:32.466Z,2.80
2019-02-26T05:37:40.220Z,2.90
2019-02-26T05:39:43.332Z,2.90
2019-02-26T05:41:45.657Z,2.90
2019-02-26T05:43:55.331Z,2.90
2019-02-26T05:45:57.417Z,3.00
2019-02-26T05:47:59.066Z,3.00
2019-02-26T05:50:06.239Z,3.00
2019-02-26T05:52:07.507Z,3.00
2019-02-26T05:54:14.785Z,3.00
2019-02-26T05:56:17.154Z,2.90
2019-02-26T05:58:21.443Z,2.90
2019-02-26T06:00:28.944Z,2.90
2019-02-26T06:02:29.561Z,2.80
2019-02-26T06:04:35.180Z,2.80
2019-02-26T06:06:38.407Z,2.80
2019-02-26T06:08:42.829Z,2.70
2019-02-26T06:10:47.227Z,2.70
2019-02-26T06:12:51.609Z,2.60
2019-02-26T06:15:00.255Z,2.60
2019-02-26T06:17:00.302Z,2.50
2019-02-26T06:19:06.146Z,2.50
2019-02-26T06:21:09.184Z,2.50
2019-02-26T06:23:13.571Z,2.40
2019-02-26T06:25:23.295Z,2.40
2019-02-26T06:27:24.688Z,2.40
2019-02-26T06:29:27.409Z,2.40
2019-02-26T06:31:31.136Z,2.30
2019-02-26T06:33:36.607Z,2.40
2019-02-26T06:35:40.639Z,2.40
2019-02-26T06:37:44.258Z,2.30
2019-02-26T06:39:50.568Z,2.30
2019-02-26T06:41:52.944Z,2.30
2019-02-26T06:43:57.295Z,2.30
2019-02-26T06:46:02.674Z,2.30
2019-02-26T06:48:06.091Z,2.30
2019-02-26T06:50:12.980Z,2.40
2019-02-26T06:52:16.265Z,2.50
2019-02-26T06:54:22.144Z,2.40
2019-02-26T06:56:23.950Z,2.50
2019-02-26T06:58:28.953Z,2.50
2019-02-26T07:00:33.333Z,2.50
2019-02-26T07:02:37.696Z,2.60
2019-02-26T07:04:42.029Z,2.60
2019-02-26T07:06:46.393Z,2.70
2019-02-26T07:08:51.090Z,2.70
2019-02-26T07:10:55.117Z,2.70
2019-02-26T07:12:59.502Z,2.70
2019-02-26T07:15:03.995Z,2.70
2019-02-26T07:17:08.358Z,2.70
2019-02-26T07:19:14.492Z,2.70
2019-02-26T07:21:17.125Z,2.70
2019-02-26T07:23:21.485Z,2.60
2019-02-26T07:25:25.866Z,2.60
2019-02-26T07:27:32.004Z,2.70
2019-02-26T07:29:37.539Z,2.70
2019-02-26T07:31:39.014Z,2.70
2019-02-26T07:33:43.389Z,2.80
2019-02-26T07:35:47.716Z,2.90
2019-02-26T07:37:52.706Z,2.90
2019-02-26T07:39:56.469Z,3.00
2019-02-26T07:42:00.833Z,3.00
2019-02-26T07:44:09.033Z,3.00
2019-02-26T07:46:11.756Z,3.10
2019-02-26T07:48:18.627Z,3.10
2019-02-26T07:50:18.360Z,3.20
2019-02-26T07:52:24.345Z,3.20
2019-02-26T07:54:28.720Z,3.30
2019-02-26T07:56:32.722Z,3.40
2019-02-26T07:58:36.808Z,3.40
2019-02-26T08:00:42.318Z,3.50
2019-02-26T08:02:44.552Z,3.50
2019-02-26T08:04:48.959Z,3.60
2019-02-26T08:06:54.959Z,3.70
2019-02-26T08:08:57.783Z,3.70
2019-02-26T08:11:02.163Z,3.80
2019-02-26T08:13:08.039Z,3.90
2019-02-26T08:15:15.533Z,4.00
2019-02-26T08:17:17.475Z,4.10
2019-02-26T08:19:21.826Z,4.20
2019-02-26T08:21:27.068Z,4.30
2019-02-26T08:23:30.576Z,4.30
2019-02-26T08:25:34.918Z,4.40
2019-02-26T08:27:39.233Z,4.50
2019-02-26T08:29:43.619Z,4.50
2019-02-26T08:31:49.546Z,4.60
2019-02-26T08:33:52.862Z,4.70
2019-02-26T08:35:57.242Z,4.80
2019-02-26T08:38:05.684Z,4.90
2019-02-26T08:40:09.378Z,5.00
2019-02-26T08:42:12.106Z,5.10
2019-02-26T08:44:16.430Z,5.10
2019-02-26T08:46:20.846Z,5.20
2019-02-26T08:48:26.979Z,5.30
2019-02-26T08:50:32.973Z,5.40
2019-02-26T08:52:33.956Z,5.50
2019-02-26T08:54:38.353Z,5.60
2019-02-26T08:56:42.706Z,5.70
2019-02-26T08:58:47.022Z,5.80
2019-02-26T09:00:51.379Z,5.80
2019-02-26T09:02:56.663Z,6.00
2019-02-26T09:05:01.567Z,6.10
2019-02-26T09:07:04.529Z,6.20
2019-02-26T09:09:09.726Z,6.30
2019-02-26T09:11:14.244Z,6.40
2019-02-26T09:13:18.759Z,6.50
2019-02-26T09:15:23.000Z,6.60
2019-02-26T09:17:29.890Z,6.70
2019-02-26T09:19:35.421Z,6.80
2019-02-26T09:21:39.481Z,6.90
2019-02-26T09:23:42.391Z,7.00
2019-02-26T09:25:51.540Z,7.10
2019-02-26T09:27:51.350Z,7.20
2019-02-26T09:29:56.088Z,7.40
2019-02-26T09:32:00.510Z,7.40
2019-02-26T09:34:04.871Z,7.50
2019-02-26T09:36:12.653Z,7.70
2019-02-26T09:38:15.021Z,7.80
2019-02-26T09:40:20.395Z,7.90
2019-02-26T09:42:23.374Z,8.00
2019-02-26T09:44:29.245Z,8.10
2019-02-26T09:46:33.566Z,8.20
2019-02-26T09:48:38.173Z,8.30
2019-02-26T09:50:41.915Z,8.40
2019-02-26T09:52:45.202Z,8.50
2019-02-26T09:54:51.105Z,8.60
2019-02-26T09:56:53.832Z,8.70
2019-02-26T09:58:58.159Z,8.90
2019-02-26T10:01:02.505Z,9.00
2019-02-26T10:03:08.399Z,9.10
2019-02-26T10:05:13.516Z,9.20
2019-02-26T10:07:15.738Z,9.40
2019-02-26T10:09:20.710Z,9.50
2019-02-26T10:11:26.127Z,9.60
2019-02-26T10:13:28.998Z,9.70
2019-02-26T10:15:34.882Z,9.80
2019-02-26T10:17:40.155Z,9.90
2019-02-26T10:19:43.005Z,10.00
2019-02-26T10:21:46.659Z,10.10
2019-02-26T10:23:52.141Z,10.20
2019-02-26T10:25:57.558Z,10.20
2019-02-26T10:28:05.731Z,10.30
2019-02-26T10:30:08.409Z,10.40
2019-02-26T10:32:11.781Z,10.50
2019-02-26T10:34:15.754Z,10.60
2019-02-26T10:36:19.071Z,10.60
2019-02-26T10:38:24.195Z,10.70
2019-02-26T10:40:35.242Z,10.80
2019-02-26T10:42:39.628Z,10.90
2019-02-26T10:44:36.729Z,11.00
2019-02-26T10:46:42.563Z,11.10
2019-02-26T10:48:46.341Z,11.10
2019-02-26T10:50:51.930Z,11.20
2019-02-26T10:52:57.746Z,11.30
2019-02-26T10:54:58.825Z,11.40
2019-02-26T10:57:07.459Z,11.50
2019-02-26T10:59:09.460Z,11.60
2019-02-26T11:01:13.092Z,11.60
2019-02-26T11:03:19.863Z,11.80
2019-02-26T11:05:26.256Z,11.80
2019-02-26T11:07:27.053Z,11.90
2019-02-26T11:09:31.987Z,12.10
2019-02-26T11:11:37.367Z,12.20
2019-02-26T11:13:42.247Z,12.20
2019-02-26T11:15:43.971Z,12.30
2019-02-26T11:17:50.476Z,12.40
2019-02-26T11:19:53.668Z,12.50
2019-02-26T11:22:00.852Z,12.60
2019-02-26T11:24:04.154Z,12.60
2019-02-26T11:26:10.713Z,12.80
2019-02-26T11:28:12.985Z,12.80
2019-02-26T11:30:20.550Z,12.90
2019-02-26T11:32:22.151Z,13.00
2019-02-26T11:34:28.567Z,13.10
2019-02-26T11:36:32.958Z,13.20
2019-02-26T11:38:36.995Z,13.20
2019-02-26T11:40:39.716Z,13.30
2019-02-26T11:42:44.460Z,13.40
2019-02-26T11:44:48.458Z,13.50
2019-02-26T11:46:54.319Z,13.60
2019-02-26T11:48:57.546Z,13.60
2019-02-26T11:51:01.589Z,13.70
2019-02-26T11:53:09.300Z,13.80
2019-02-26T11:55:11.370Z,13.90
2019-02-26T11:57:17.634Z,14.00
2019-02-26T11:59:20.051Z,14.00
2019-02-26T12:01:24.463Z,14.10
2019-02-26T12:03:32.731Z,14.20
2019-02-26T12:05:35.503Z,14.20
2019-02-26T12:07:37.663Z,14.20
2019-02-26T12:09:43.339Z,14.40
2019-02-26T12:11:46.498Z,14.50
2019-02-26T12:13:53.026Z,14.50
2019-02-26T12:15:55.250Z,14.60
2019-02-26T12:17:59.684Z,14.70
2019-02-26T12:20:04.299Z,14.70
2019-02-26T12:22:08.664Z,14.70
2019-02-26T12:24:13.042Z,14.80
2019-02-26T12:26:19.190Z,14.80
2019-02-26T12:28:21.927Z,14.90
2019-02-26T12:30:26.409Z,15.00
2019-02-26T12:32:30.798Z,15.10
2019-02-26T12:34:44.604Z,15.20
2019-02-26T12:36:48.177Z,15.20
2019-02-26T12:38:53.436Z,15.30
2019-02-26T12:40:54.913Z,15.40
2019-02-26T12:43:01.851Z,15.40
2019-02-26T12:45:06.708Z,15.50
2019-02-26T12:47:08.088Z,15.50
2019-02-26T12:49:14.859Z,15.60
2019-02-26T12:51:25.243Z,15.60
2019-02-26T12:53:27.370Z,15.70
2019-02-26T12:55:34.527Z,15.80
2019-02-26T12:57:36.256Z,15.90
2019-02-26T12:59:40.662Z,16.00
2019-02-26T13:01:46.222Z,16.00
2019-02-26T13:03:53.890Z,16.10
2019-02-26T13:05:53.850Z,16.20
2019-02-26T13:07:58.230Z,16.20
2019-02-26T13:10:03.867Z,16.30
2019-02-26T13:12:07.302Z,16.40
2019-02-26T13:14:11.681Z,16.50
2019-02-26T13:16:16.043Z,16.50
2019-02-26T13:18:20.442Z,16.60
2019-02-26T13:20:24.803Z,16.70
2019-02-26T13:22:29.141Z,16.70
2019-02-26T13:24:33.506Z,16.80
2019-02-26T13:26:39.081Z,16.80
2019-02-26T13:28:46.762Z,16.90
2019-02-26T13:30:46.696Z,16.90
2019-02-26T13:34:56.510Z,17.00
2019-02-26T13:37:00.033Z,17.10
2019-02-26T13:39:05.234Z,17.10
2019-02-26T13:41:28.975Z,17.10
2019-02-26T13:43:14.161Z,17.10
2019-02-26T13:45:20.039Z,17.20
2019-02-26T13:47:25.332Z,17.20
2019-02-26T13:49:29.761Z,17.30
2019-02-26T13:51:34.152Z,17.30
2019-02-26T13:53:38.853Z,17.30
2019-02-26T13:55:43.256Z,17.40
2019-02-26T13:57:47.618Z,17.50
2019-02-26T13:59:52.033Z,17.60
2019-02-26T14:01:56.473Z,17.60
2019-02-26T14:04:00.876Z,17.70
2019-02-26T14:06:05.260Z,17.70
2019-02-26T14:08:09.706Z,17.80
2019-02-26T14:10:15.059Z,17.90
2019-02-26T14:12:19.439Z,18.00
2019-02-26T14:14:23.778Z,17.90
2019-02-26T14:16:32.546Z,18.10
2019-02-26T14:18:32.506Z,18.20
2019-02-26T14:20:36.975Z,18.20
2019-02-26T14:22:41.433Z,18.30
2019-02-26T14:24:45.763Z,18.40
2019-02-26T14:26:50.170Z,18.50
2019-02-26T14:28:54.511Z,18.60
2019-02-26T14:30:58.886Z,18.70
2019-02-26T14:33:03.250Z,18.80
2019-02-26T14:35:08.633Z,18.90
2019-02-26T14:37:13.906Z,19.00
2019-02-26T14:39:18.245Z,18.90
2019-02-26T14:41:22.597Z,18.80
2019-02-26T14:43:27.004Z,18.90
2019-02-26T14:45:31.376Z,18.90
2019-02-26T14:47:35.852Z,19.00
2019-02-26T14:49:40.210Z,18.90
2019-02-26T14:51:44.542Z,19.10
2019-02-26T14:53:49.264Z,19.10
2019-02-26T14:55:53.434Z,19.20
2019-02-26T14:57:57.798Z,19.30
2019-02-26T15:00:02.173Z,19.50
2019-02-26T15:02:06.518Z,19.50
2019-02-26T15:04:10.920Z,19.70
2019-02-26T15:06:15.663Z,19.80
2019-02-26T15:08:19.622Z,19.90
2019-02-26T15:10:24.020Z,20.10
2019-02-26T15:12:28.375Z,20.10
2019-02-26T15:14:32.778Z,20.20
2019-02-26T15:16:37.148Z,20.20
2019-02-26T15:18:41.516Z,20.20
2019-02-26T15:20:45.920Z,20.30
2019-02-26T15:22:50.270Z,20.30
2019-02-26T15:24:54.641Z,20.40
2019-02-26T15:26:59.027Z,20.50
2019-02-26T15:29:03.402Z,20.70
2019-02-26T15:31:07.923Z,20.90
2019-02-26T15:33:12.350Z,21.20
2019-02-26T15:35:16.809Z,21.30
2019-02-26T15:37:21.177Z,21.50
2019-02-26T15:39:25.541Z,21.50
2019-02-26T15:41:29.947Z,21.60
2019-02-26T15:43:34.289Z,21.50
2019-02-26T15:45:38.618Z,21.60
2019-02-26T15:47:43.101Z,21.70
2019-02-26T15:49:47.463Z,21.80
2019-02-26T15:51:51.827Z,21.90
2019-02-26T15:53:56.450Z,22.10
2019-02-26T15:56:00.575Z,22.40
2019-02-26T15:58:06.805Z,22.50
2019-02-26T16:00:11.541Z,22.50
2019-02-26T16:02:15.903Z,22.60
2019-02-26T16:04:20.331Z,22.50
2019-02-26T16:06:24.718Z,22.30
2019-02-26T16:08:34.654Z,22.10
2019-02-26T16:10:33.461Z,21.70
2019-02-26T16:12:37.854Z,21.30
2019-02-26T16:14:42.216Z,20.90
2019-02-26T16:16:46.540Z,20.60
2019-02-26T16:18:50.969Z,20.30
2019-02-26T16:20:55.376Z,19.90
2019-02-26T16:22:59.723Z,19.60
2019-02-26T16:25:07.440Z,19.30
2019-02-26T16:27:08.495Z,19.10
2019-02-26T16:29:12.869Z,18.70
2019-02-26T16:31:17.283Z,18.50
2019-02-26T16:33:21.698Z,18.40
2019-02-26T16:35:26.088Z,18.10
2019-02-26T16:37:30.454Z,17.90
2019-02-26T16:39:34.814Z,17.80
2019-02-26T16:41:39.239Z,17.60
2019-02-26T16:43:43.622Z,17.50
2019-02-26T16:45:48.093Z,17.30
2019-02-26T16:47:52.505Z,17.20
2019-02-26T16:50:02.112Z,17.10
2019-02-26T16:52:01.368Z,16.90
2019-02-26T16:54:07.430Z,16.80
2019-02-26T16:56:10.372Z,16.70
2019-02-26T16:58:14.871Z,16.60
2019-02-26T17:00:20.692Z,16.60
2019-02-26T17:02:27.198Z,16.50
2019-02-26T17:04:30.892Z,16.40
2019-02-26T17:06:33.784Z,16.30
2019-02-26T17:08:38.233Z,16.20
2019-02-26T17:10:42.654Z,16.00
2019-02-26T17:12:50.808Z,15.90
2019-02-26T17:14:55.230Z,15.80
2019-02-26T17:17:01.579Z,15.70
2019-02-26T17:19:04.078Z,15.60
2019-02-26T17:21:08.530Z,15.50
2019-02-26T17:23:14.081Z,15.40
2019-02-26T17:25:17.386Z,15.30
2019-02-26T17:27:21.766Z,15.20
2019-02-26T17:29:26.157Z,15.20
2019-02-26T17:31:30.733Z,15.00
2019-02-26T17:33:35.204Z,14.90
2019-02-26T17:35:39.534Z,14.80
2019-02-26T17:37:43.934Z,14.70
2019-02-26T17:39:48.318Z,14.50
2019-02-26T17:41:52.730Z,14.40
2019-02-26T17:43:59.619Z,14.20
2019-02-26T17:46:01.553Z,14.10
2019-02-26T17:48:06.039Z,13.90
2019-02-26T17:50:13.483Z,13.80
2019-02-26T17:52:17.969Z,13.60
2019-02-26T17:54:24.325Z,13.60
2019-02-26T17:56:28.831Z,13.40
2019-02-26T17:58:33.246Z,13.40
2019-02-26T18:00:39.698Z,13.30
2019-02-26T18:02:44.822Z,13.20
2019-02-26T18:04:49.282Z,13.20
2019-02-26T18:06:53.801Z,13.20
2019-02-26T18:08:58.255Z,13.10
2019-02-26T18:11:02.770Z,13.00
2019-02-26T18:13:09.126Z,13.00
2019-02-26T18:15:16.650Z,13.00
2019-02-26T18:17:18.178Z,12.90
2019-02-26T18:19:22.565Z,12.80
2019-02-26T18:21:26.918Z,12.80
2019-02-26T18:23:31.266Z,12.80
2019-02-26T18:25:35.835Z,12.70
2019-02-26T18:27:40.347Z,12.60
2019-02-26T18:29:44.784Z,12.60
2019-02-26T18:31:49.259Z,12.50
2019-02-26T18:33:53.627Z,12.40
2019-02-26T18:35:59.351Z,12.40
2019-02-26T18:38:02.573Z,12.30
2019-02-26T18:40:07.589Z,12.30
2019-02-26T18:42:11.834Z,12.20
2019-02-26T18:44:17.807Z,12.00
2019-02-26T18:46:20.791Z,11.90
2019-02-26T18:48:25.449Z,11.80
2019-02-26T18:50:29.971Z,11.70
2019-02-26T18:52:34.431Z,11.60
2019-02-26T18:54:38.849Z,11.50
2019-02-26T18:56:43.246Z,11.50
2019-02-26T18:58:49.098Z,11.40
2019-02-26T19:00:52.132Z,11.30
2019-02-26T19:02:56.523Z,11.20
2019-02-26T19:05:01.765Z,11.20
2019-02-26T19:07:06.266Z,11.00
2019-02-26T19:09:12.326Z,11.00
2019-02-26T19:11:16.856Z,10.90
2019-02-26T19:13:21.247Z,10.90
2019-02-26T19:15:25.708Z,10.80
2019-02-26T19:17:30.114Z,10.70
2019-02-26T19:19:34.581Z,10.70
2019-02-26T19:21:39.094Z,10.60
2019-02-26T19:23:43.653Z,10.60
2019-02-26T19:25:48.814Z,10.60
2019-02-26T19:27:53.687Z,10.50
2019-02-26T19:29:57.825Z,10.50
2019-02-26T19:32:02.270Z,10.50
2019-02-26T19:34:06.747Z,10.40
2019-02-26T19:36:13.061Z,10.30
2019-02-26T19:38:15.721Z,10.20
2019-02-26T19:40:21.699Z,10.20
2019-02-26T19:42:26.094Z,10.10
2019-02-26T19:44:30.624Z,10.10
2019-02-26T19:46:35.704Z,10.00
2019-02-26T19:48:40.277Z,10.00
2019-02-26T19:50:47.941Z,9.80
2019-02-26T19:52:56.616Z,9.70
2019-02-26T19:54:53.631Z,9.70
2019-02-26T19:56:58.101Z,9.60
2019-02-26T19:59:03.903Z,9.60
2019-02-26T20:01:08.312Z,9.50
2019-02-26T20:03:12.762Z,9.50
2019-02-26T20:05:17.215Z,9.50
2019-02-26T20:07:21.711Z,9.40
2019-02-26T20:09:26.147Z,9.40
2019-02-26T20:11:30.591Z,9.30
2019-02-26T20:13:35.061Z,9.20
2019-02-26T20:15:39.591Z,9.10
2019-02-26T20:17:44.098Z,9.10
2019-02-26T20:19:48.595Z,9.00
2019-02-26T20:21:53.110Z,9.00
2019-02-26T20:23:57.574Z,8.90
2019-02-26T20:26:01.993Z,8.90
2019-02-26T20:28:07.072Z,8.90
2019-02-26T20:30:14.055Z,8.90
2019-02-26T20:32:18.595Z,8.80
2019-02-26T20:34:23.153Z,8.70
2019-02-26T20:36:29.622Z,8.70
2019-02-26T20:38:35.202Z,8.70
2019-02-26T20:40:38.768Z,8.60
2019-02-26T20:42:43.363Z,8.50
2019-02-26T20:44:47.867Z,8.50
2019-02-26T20:46:52.278Z,8.40
2019-02-26T20:48:56.825Z,8.30
2019-02-26T20:51:01.265Z,8.30
2019-02-26T20:53:06.514Z,8.30
2019-02-26T20:55:12.062Z,8.20
2019-02-26T20:57:16.523Z,8.20
2019-02-26T20:59:22.101Z,8.10
2019-02-26T21:01:26.582Z,8.10
2019-02-26T21:03:53.381Z,8.10
2019-02-26T21:05:57.883Z,8.00
2019-02-26T21:08:18.584Z,7.90
2019-02-26T21:10:23.786Z,7.90
2019-02-26T21:12:28.797Z,7.90
2019-02-26T21:14:32.618Z,7.80
2019-02-26T21:16:37.039Z,7.80
2019-02-26T21:18:41.447Z,7.70
2019-02-26T21:20:45.896Z,7.70
2019-02-26T21:22:54.657Z,7.70
2019-02-26T21:24:55.241Z,7.60
2019-02-26T21:26:59.690Z,7.60
2019-02-26T21:29:06.267Z,7.50
2019-02-26T21:31:08.559Z,7.50
2019-02-26T21:33:13.011Z,7.50
2019-02-26T21:35:20.214Z,7.40
2019-02-26T21:37:21.973Z,7.40
2019-02-26T21:39:26.567Z,7.40
2019-02-26T21:41:31.538Z,7.30
2019-02-26T21:43:36.242Z,7.20
2019-02-26T21:45:40.774Z,7.10
2019-02-26T21:47:45.256Z,7.00
2019-02-26T21:49:49.645Z,7.00
2019-02-26T21:51:55.222Z,7.00
2019-02-26T21:53:58.518Z,7.00
2019-02-26T21:56:02.857Z,6.90
2019-02-26T21:58:07.279Z,6.90
2019-02-26T22:00:13.520Z,6.80
2019-02-26T22:02:18.878Z,6.80
2019-02-26T22:04:23.204Z,6.70
2019-02-26T22:06:27.582Z,6.70
2019-02-26T22:08:32.055Z,6.70
2019-02-26T22:10:36.478Z,6.70
2019-02-26T22:12:40.898Z,6.60
2019-02-26T22:14:45.287Z,6.60
2019-02-26T22:16:51.503Z,6.50
2019-02-26T22:18:54.169Z,6.50
2019-02-26T22:20:58.603Z,6.40
2019-02-26T22:23:03.018Z,6.40
2019-02-26T22:25:09.877Z,6.40
2019-02-26T22:27:12.010Z,6.30
2019-02-26T22:29:16.392Z,6.30
2019-02-26T22:31:20.761Z,6.30
2019-02-26T22:33:25.122Z,6.30
2019-02-26T22:35:30.389Z,6.30
2019-02-26T22:37:34.787Z,6.20
2019-02-26T22:39:39.238Z,6.20
2019-02-26T22:41:43.607Z,6.20
2019-02-26T22:43:48.183Z,6.20
2019-02-26T22:45:52.346Z,6.10
2019-02-26T22:47:56.742Z,6.10
2019-02-26T22:50:03.115Z,6.00
2019-02-26T22:52:05.472Z,6.00
2019-02-26T22:54:10.376Z,6.00
2019-02-26T22:56:15.368Z,5.90
2019-02-26T22:58:18.616Z,5.80
2019-02-26T23:00:35.503Z,5.80
2019-02-26T23:02:40.813Z,5.80
2019-02-26T23:04:44.310Z,5.80
2019-02-26T23:06:48.685Z,5.70
2019-02-26T23:08:53.070Z,5.70
2019-02-26T23:10:58.048Z,5.70
2019-02-26T23:13:01.881Z,5.70
2019-02-26T23:15:06.497Z,5.70
2019-02-26T23:17:11.042Z,5.60
2019-02-26T23:19:15.494Z,5.60
2019-02-26T23:21:20.046Z,5.60
2019-02-26T23:23:24.398Z,5.60
2019-02-26T23:25:28.827Z,5.50
2019-02-26T23:27:33.314Z,5.50
2019-02-26T23:29:39.430Z,5.50
2019-02-26T23:31:43.795Z,5.40
2019-02-26T23:33:49.010Z,5.30
2019-02-26T23:35:54.902Z,5.30
2019-02-26T23:37:56.971Z,5.30
2019-02-26T23:40:01.366Z,5.20
2019-02-26T23:42:06.586Z,5.20
2019-02-26T23:44:17.745Z,5.10
2019-02-26T23:46:24.142Z,5.10
2019-02-26T23:48:28.674Z,5.00
2019-02-26T23:50:33.039Z,5.00
2019-02-26T23:52:37.538Z,5.00
2019-02-26T23:54:41.911Z,5.00
2019-02-26T23:56:46.250Z,5.00
2019-02-26T23:58:50.606Z,5.00
